Time;durP1;ratioP1;P1;durP2;ratioP2;P2;SDS_P1;SDS_P2;PMS_P1;PMS_P2;Temp;Humidity;BMP_temperature;BMP_pressure;BME280_temperature;BME280_humidity;BME280_pressure;Samples;Min_cycle;Max_cycle;Signal;HPM_P1;HPM_P2
2023/01/04 00:00:20;;;;;;;80.30;72.00;;;;;;;0.30;91.36;99128.88;104919;1327;22169;-81
2023/01/04 00:03:08;;;;;;;76.80;69.10;;;;;;;0.24;91.49;99130.98;104854;1326;22221;-81
2023/01/04 00:05:37;;;;;;;79.00;71.30;;;;;;;0.15;91.78;99134.80;105417;1320;22265;-80
2023/01/04 00:08:05;;;;;;;81.00;72.80;;;;;;;0.05;92.31;99132.75;105432;1312;22900;-81
2023/01/04 00:10:34;;;;;;;86.70;75.00;;;;;;;-0.03;92.71;99135.62;105399;1319;22203;-82
2023/01/04 00:13:02;;;;;;;79.90;71.70;;;;;;;-0.11;92.77;99135.67;105412;1320;22140;-82
2023/01/04 00:15:29;;;;;;;77.20;69.10;;;;;;;-0.20;92.64;99143.88;105410;1319;22245;-81
2023/01/04 00:17:57;;;;;;;75.20;67.80;;;;;;;-0.26;92.80;99149.61;105412;1318;22179;-82
2023/01/04 00:20:25;;;;;;;80.10;71.90;;;;;;;-0.31;93.08;99148.81;105422;1320;22993;-81
2023/01/04 00:22:53;;;;;;;80.20;71.90;;;;;;;-0.31;93.54;99148.36;105436;1320;22169;-82
2023/01/04 00:25:21;;;;;;;76.40;66.40;;;;;;;-0.31;93.48;99141.10;105418;1312;22062;-80
2023/01/04 00:27:51;;;;;;;79.50;71.00;;;;;;;-0.33;93.42;99141.30;105427;1311;22964;-81
2023/01/04 00:30:19;;;;;;;91.70;82.40;;;;;;;-0.35;93.69;99141.33;105443;1301;22302;-80
2023/01/04 00:32:47;;;;;;;88.50;74.90;;;;;;;-0.37;94.49;99139.74;105414;1312;22171;-81
2023/01/04 00:35:15;;;;;;;84.30;75.60;;;;;;;-0.37;94.58;99137.29;105398;1305;22802;-80
2023/01/04 00:38:03;;;;;;;78.50;70.70;;;;;;;-0.36;94.66;99129.77;104916;1326;22185;-81
2023/01/04 00:40:31;;;;;;;88.60;72.80;;;;;;;-0.39;94.77;99129.79;105017;1321;22909;-82
2023/01/04 00:42:59;;;;;;;78.40;70.60;;;;;;;-0.39;95.05;99126.60;105418;1319;22223;-82
2023/01/04 00:45:27;;;;;;;110.00;89.70;;;;;;;-0.40;94.91;99127.50;105432;1319;22207;-82
2023/01/04 00:47:55;;;;;;;91.20;79.80;;;;;;;-0.43;94.56;99124.79;104872;1327;22198;-82
2023/01/04 00:50:23;;;;;;;87.10;78.40;;;;;;;-0.46;94.42;99127.39;105436;1309;22868;-81
2023/01/04 00:52:50;;;;;;;82.80;73.80;;;;;;;-0.52;94.28;99126.10;104857;1327;22885;-81
2023/01/04 00:55:18;;;;;;;81.40;72.30;;;;;;;-0.56;94.45;99127.91;104926;1321;22192;-81
2023/01/04 00:57:46;;;;;;;82.80;74.10;;;;;;;-0.58;94.65;99130.23;104919;1326;22225;-81
2023/01/04 01:00:15;;;;;;;78.40;68.70;;;;;;;-0.59;94.93;99128.59;104953;1326;22186;-82
2023/01/04 01:02:43;;;;;;;79.30;71.20;;;;;;;-0.59;95.52;99129.33;105235;1317;22160;-82
2023/01/04 01:05:11;;;;;;;89.90;80.60;;;;;;;-0.61;95.33;99126.61;104936;1326;22146;-82
2023/01/04 01:07:39;;;;;;;85.40;76.40;;;;;;;-0.59;95.28;99128.52;104967;1327;22819;-82
2023/01/04 01:10:07;;;;;;;85.10;76.40;;;;;;;-0.62;95.36;99127.48;104920;1327;22271;-82
2023/01/04 01:12:35;;;;;;;91.80;80.70;;;;;;;-0.65;95.87;99127.46;104783;1327;23213;-81
2023/01/04 01:15:04;;;;;;;86.20;77.30;;;;;;;-0.70;95.69;99127.00;104953;1326;22277;-81
2023/01/04 01:17:33;;;;;;;86.00;76.70;;;;;;;-0.74;96.07;99125.09;105392;1320;22161;-81
2023/01/04 01:20:03;;;;;;;85.30;76.30;;;;;;;-0.73;96.35;99131.21;104835;1325;22842;-81
2023/01/04 01:22:34;;;;;;;82.00;73.50;;;;;;;-0.68;96.34;99125.70;105256;1320;22178;-81
2023/01/04 01:25:02;;;;;;;81.70;73.30;;;;;;;-0.62;96.17;99123.57;105452;1319;22845;-81
2023/01/04 01:27:30;;;;;;;79.50;71.10;;;;;;;-0.56;96.10;99121.00;105435;1318;22162;-80
2023/01/04 01:29:58;;;;;;;83.00;74.10;;;;;;;-0.53;95.88;99121.13;105174;1320;22221;-80
2023/01/04 01:32:26;;;;;;;87.00;78.10;;;;;;;-0.55;96.25;99126.54;104850;1327;22207;-81
2023/01/04 01:34:54;;;;;;;98.40;87.60;;;;;;;-0.55;96.57;99129.55;104935;1326;22976;-81
2023/01/04 01:37:22;;;;;;;92.50;78.10;;;;;;;-0.55;96.39;99129.55;104942;1326;22207;-81
2023/01/04 01:39:50;;;;;;;81.20;73.30;;;;;;;-0.54;95.85;99128.02;104831;1325;22989;-81
2023/01/04 01:42:21;;;;;;;89.80;80.50;;;;;;;-0.58;96.09;99128.61;105441;1312;22189;-80
2023/01/04 01:45:28;;;;;;;86.30;76.20;;;;;;;-0.53;96.24;99123.25;104982;1319;22177;-80
2023/01/04 01:48:11;;;;;;;89.50;80.10;;;;;;;-0.43;96.29;99114.41;104823;1326;23026;-80
2023/01/04 01:50:47;;;;;;;94.30;84.60;;;;;;;-0.34;96.35;99117.62;104841;1325;23190;-82
2023/01/04 01:53:15;;;;;;;89.70;80.60;;;;;;;-0.38;96.44;99119.56;104765;1327;22192;-81
2023/01/04 01:55:44;;;;;;;95.20;85.20;;;;;;;-0.33;97.04;99123.95;104841;1327;22241;-80
2023/01/04 01:58:20;;;;;;;99.40;86.20;;;;;;;-0.31;96.79;99126.75;105004;1319;22202;-81
2023/01/04 02:00:48;;;;;;;99.00;85.70;;;;;;;-0.22;96.78;99127.61;104860;1327;22250;-81
2023/01/04 02:03:41;;;;;;;90.70;80.70;;;;;;;-0.12;96.74;99126.45;104845;1322;22725;-81
2023/01/04 02:06:22;;;;;;;101.40;83.20;;;;;;;0.05;96.87;99121.00;105407;1318;22237;-82
2023/01/04 02:08:51;;;;;;;120.80;92.70;;;;;;;0.20;96.71;99124.09;104920;1327;22267;-80
2023/01/04 02:11:19;;;;;;;124.50;94.40;;;;;;;0.34;97.11;99123.09;104926;1326;23020;-81
2023/01/04 02:17:06;;;;;;;118.20;91.40;;;;;;;0.53;96.67;99124.36;105409;1294;22246;-81
2023/01/04 02:20:14;;;;;;;92.90;79.20;;;;;;;0.55;96.05;99118.73;104872;1327;22653;-81
2023/01/04 02:22:48;;;;;;;109.20;86.90;;;;;;;0.55;96.44;99117.19;105425;1318;22215;-81
2023/01/04 02:25:19;;;;;;;121.90;94.30;;;;;;;0.70;96.89;99112.49;104898;1326;22204;-81
2023/01/04 02:28:20;;;;;;;121.80;94.10;;;;;;;0.73;96.57;99109.31;104932;1326;22141;-81
2023/01/04 02:31:18;;;;;;;124.90;99.40;;;;;;;0.72;96.02;99110.85;105414;1318;23016;-81
2023/01/04 02:33:50;;;;;;;141.40;102.70;;;;;;;0.67;96.26;99114.66;104906;1327;22194;-81
2023/01/04 02:36:30;;;;;;;100.20;86.50;;;;;;;0.69;96.35;99108.53;105452;1319;22208;-81
2023/01/04 02:39:10;;;;;;;90.20;80.90;;;;;;;0.78;96.64;99106.62;104926;1327;22261;-81
2023/01/04 02:41:49;;;;;;;97.50;86.80;;;;;;;0.76;95.53;99102.86;105467;1319;22263;-82
2023/01/04 02:50:38;;;;;;;124.30;97.30;;;;;;;0.51;95.22;99098.70;104832;1327;22772;-82
2023/01/04 02:53:18;;;;;;;127.80;98.30;;;;;;;0.37;95.34;99094.58;104661;1328;22195;-81
2023/01/04 02:56:00;;;;;;;116.60;93.90;;;;;;;0.33;95.52;99090.38;104830;1327;22249;-82
2023/01/04 02:58:50;;;;;;;134.00;95.20;;;;;;;0.33;95.64;99090.86;104943;1326;22220;-81
2023/01/04 03:07:26;;;;;;;123.30;98.50;;;;;;;0.28;95.72;99075.81;105424;1318;22192;-81
2023/01/04 03:10:04;;;;;;;125.80;97.70;;;;;;;0.19;95.50;99075.60;104877;1320;22187;-81
2023/01/04 03:12:42;;;;;;;120.40;94.60;;;;;;;0.03;95.32;99071.37;104747;1327;22191;-81
2023/01/04 03:15:21;;;;;;;122.00;92.30;;;;;;;-0.12;95.40;99066.75;104953;1319;22257;-81
2023/01/04 03:17:54;;;;;;;126.60;92.90;;;;;;;-0.19;95.73;99065.80;104824;1327;22209;-80
2023/01/04 03:20:27;;;;;;;122.00;93.80;;;;;;;-0.27;95.52;99067.52;104758;1327;22189;-80
2023/01/04 03:37:22;;;;;;;120.40;91.40;;;;;;;-0.58;95.71;99063.63;104863;1327;22164;-81
2023/01/04 03:48:55;;;;;;;126.90;97.60;;;;;;;-0.54;97.05;99052.21;104863;1322;22238;-82
2023/01/04 03:51:29;;;;;;;104.50;87.90;;;;;;;-0.59;96.22;99051.66;105440;1306;22194;-80
2023/01/04 03:54:02;;;;;;;111.40;87.70;;;;;;;-0.56;96.78;99045.64;104943;1327;22147;-81
2023/01/04 03:56:34;;;;;;;97.30;81.90;;;;;;;-0.62;96.20;99036.46;104936;1327;22245;-81
2023/01/04 03:59:04;;;;;;;100.40;83.50;;;;;;;-0.68;96.25;99037.98;104756;1327;22198;-86
2023/01/04 04:01:32;;;;;;;90.20;80.90;;;;;;;-0.61;96.54;99036.23;104871;1326;22203;-84
2023/01/04 04:09:34;;;;;;;80.10;71.00;;;;;;;-0.74;96.09;99033.48;104881;1326;23431;-84
2023/01/04 04:12:02;;;;;;;91.40;81.50;;;;;;;-0.65;97.30;99032.13;104896;1327;22153;-84
2023/01/04 04:14:30;;;;;;;81.20;73.20;;;;;;;-0.54;97.26;99028.75;104793;1327;22236;-83
2023/01/04 04:16:58;;;;;;;81.50;72.90;;;;;;;-0.53;96.28;99028.34;104936;1327;22106;-84
2023/01/04 04:19:27;;;;;;;77.00;69.30;;;;;;;-0.61;95.97;99026.20;104959;1326;22161;-84
2023/01/04 04:21:55;;;;;;;78.90;70.60;;;;;;;-0.58;96.46;99026.61;104943;1311;22217;-84
2023/01/04 04:24:25;;;;;;;79.90;71.80;;;;;;;-0.48;96.99;99023.72;104924;1326;22259;-85
2023/01/04 04:26:54;;;;;;;82.80;74.60;;;;;;;-0.39;97.22;99015.14;104746;1327;22164;-84
2023/01/04 04:29:23;;;;;;;82.30;73.60;;;;;;;-0.32;97.08;99019.11;104864;1327;22282;-84
2023/01/04 04:31:51;;;;;;;80.80;72.50;;;;;;;-0.31;96.61;99019.59;104860;1322;22111;-84
2023/01/04 04:34:19;;;;;;;77.30;69.20;;;;;;;-0.34;96.18;99020.31;105242;1318;22279;-85
2023/01/04 04:36:47;;;;;;;81.40;71.60;;;;;;;-0.37;96.07;99023.63;104969;1326;22130;-85
2023/01/04 04:39:15;;;;;;;79.80;71.20;;;;;;;-0.35;96.23;99021.23;104798;1327;22152;-83
2023/01/04 04:41:43;;;;;;;81.40;73.30;;;;;;;-0.33;96.29;99019.14;104835;1322;22247;-83
2023/01/04 04:44:14;;;;;;;85.80;76.70;;;;;;;-0.33;96.41;99011.89;104924;1327;22096;-84
2023/01/04 04:46:42;;;;;;;79.40;71.20;;;;;;;-0.32;96.51;99004.61;105432;1319;22259;-83
2023/01/04 04:49:12;;;;;;;78.20;68.50;;;;;;;-0.32;96.53;99001.19;105265;1305;22225;-83
2023/01/04 04:51:41;;;;;;;73.50;65.90;;;;;;;-0.28;96.75;98998.86;104828;1327;22221;-83
2023/01/04 04:54:14;;;;;;;82.20;72.00;;;;;;;-0.28;96.78;98998.09;104846;1327;22173;-89
2023/01/04 04:56:48;;;;;;;79.80;71.60;;;;;;;-0.50;97.04;98996.49;104826;1327;22231;-84
2023/01/04 04:59:16;;;;;;;80.10;71.60;;;;;;;-0.66;96.93;98987.29;105440;1318;22239;-83
2023/01/04 05:01:44;;;;;;;79.50;70.50;;;;;;;-0.68;97.11;98981.58;104791;1327;22196;-84
2023/01/04 05:04:15;;;;;;;75.80;67.80;;;;;;;-0.67;97.13;98979.19;104854;1327;22101;-84
2023/01/04 05:06:46;;;;;;;76.60;68.10;;;;;;;-0.69;96.89;98978.82;104945;1326;22221;-84
2023/01/04 05:09:14;;;;;;;76.70;68.50;;;;;;;-0.84;96.53;98971.61;104893;1325;23052;-84
2023/01/04 05:14:30;;;;;;;89.40;79.10;;;;;;;-1.08;96.71;98963.04;105454;1305;22121;-84
2023/01/04 05:16:58;;;;;;;94.80;82.00;;;;;;;-1.18;96.76;98966.06;105643;1304;22242;-84
2023/01/04 05:19:26;;;;;;;97.90;77.60;;;;;;;-1.27;96.91;98962.18;104956;1321;22193;-84
2023/01/04 05:21:54;;;;;;;78.40;70.00;;;;;;;-1.33;97.11;98957.89;104963;1326;22840;-85
2023/01/04 05:24:22;;;;;;;86.70;70.60;;;;;;;-1.35;97.14;98955.08;105479;1320;22082;-84
2023/01/04 05:31:04;;;;;;;82.30;72.40;;;;;;;-1.39;97.21;98955.79;104950;1326;22231;-85
2023/01/04 05:33:32;;;;;;;74.80;66.80;;;;;;;-1.40;97.31;98956.55;104951;1327;22179;-84
2023/01/04 05:36:02;;;;;;;79.50;69.20;;;;;;;-1.37;97.21;98954.57;104843;1327;22209;-83
2023/01/04 05:38:30;;;;;;;80.20;71.50;;;;;;;-1.35;97.00;98956.66;105038;1320;22065;-83
2023/01/04 05:40:58;;;;;;;79.60;71.30;;;;;;;-1.38;96.88;98959.00;104928;1327;22219;-84
2023/01/04 05:43:26;;;;;;;88.00;78.30;;;;;;;-1.46;96.76;98959.15;105308;1309;22540;-85
2023/01/04 05:45:55;;;;;;;91.20;71.20;;;;;;;-1.51;96.87;98961.04;104943;1319;22229;-84
2023/01/04 05:48:24;;;;;;;73.30;65.80;;;;;;;-1.57;97.10;98958.60;105119;1318;22204;-83
2023/01/04 05:50:52;;;;;;;72.80;65.30;;;;;;;-1.61;97.15;98951.79;104767;1327;22634;-83
2023/01/04 05:53:20;;;;;;;65.40;58.70;;;;;;;-1.68;97.30;98952.04;104933;1326;22249;-84
2023/01/04 05:55:48;;;;;;;77.60;69.90;;;;;;;-1.66;97.65;98953.55;104896;1323;23352;-84
2023/01/04 05:58:16;;;;;;;72.20;65.00;;;;;;;-1.65;97.50;98954.33;104851;1327;22200;-83
2023/01/04 06:00:44;;;;;;;76.20;68.50;;;;;;;-1.71;97.25;98954.91;104942;1327;22250;-84
2023/01/04 06:03:12;;;;;;;71.90;64.50;;;;;;;-1.75;97.15;98958.98;104859;1327;22239;-83
2023/01/04 06:05:40;;;;;;;71.50;64.50;;;;;;;-1.79;97.19;98956.59;104857;1321;22381;-85
2023/01/04 06:08:08;;;;;;;64.80;58.50;;;;;;;-1.79;97.25;98957.36;104927;1321;23300;-84
2023/01/04 06:10:36;;;;;;;61.00;55.00;;;;;;;-1.76;97.37;98954.38;104920;1327;22362;-87
2023/01/04 06:13:04;;;;;;;64.50;58.20;;;;;;;-1.70;97.48;98950.20;104842;1327;23034;-87
2023/01/04 06:15:32;;;;;;;70.50;63.70;;;;;;;-1.69;97.38;98939.30;104851;1327;22183;-83
2023/01/04 06:18:09;;;;;;;71.80;65.10;;;;;;;-1.75;97.34;98931.91;104788;1323;22206;-84
2023/01/04 06:20:42;;;;;;;66.10;60.00;;;;;;;-1.78;97.46;98925.46;104932;1327;22927;-84
2023/01/04 06:23:10;;;;;;;63.60;57.40;;;;;;;-1.82;97.25;98925.31;105165;1319;22160;-84
2023/01/04 06:25:41;;;;;;;61.90;55.90;;;;;;;-1.86;97.04;98924.81;104950;1321;22145;-88
2023/01/04 06:28:09;;;;;;;58.10;52.50;;;;;;;-1.63;98.92;98923.73;104971;1327;23127;-86
2023/01/04 06:30:38;;;;;;;60.30;54.70;;;;;;;-1.28;99.78;98916.48;104838;1322;22202;-86
2023/01/04 06:33:05;;;;;;;62.80;56.80;;;;;;;-1.13;98.29;98916.80;104939;1327;22276;-83
2023/01/04 06:35:34;;;;;;;66.40;60.20;;;;;;;-1.19;97.37;98921.26;104957;1327;22207;-87
2023/01/04 06:38:02;;;;;;;67.80;60.90;;;;;;;-1.32;97.49;98924.79;104803;1326;22240;-82
2023/01/04 06:40:31;;;;;;;79.70;71.90;;;;;;;-1.43;97.83;98917.65;104864;1318;22932;-82
2023/01/04 06:42:58;;;;;;;70.90;64.20;;;;;;;-1.46;97.82;98913.16;104947;1327;22130;-83
2023/01/04 06:45:26;;;;;;;79.00;71.40;;;;;;;-1.45;97.73;98911.91;104869;1321;22058;-81
2023/01/04 06:47:54;;;;;;;68.30;61.50;;;;;;;-1.38;97.90;98916.70;104931;1325;22227;-81
2023/01/04 06:50:22;;;;;;;72.40;65.60;;;;;;;-1.39;97.56;98924.55;104752;1327;22154;-81
2023/01/04 06:52:50;;;;;;;71.40;64.90;;;;;;;-1.45;97.47;98927.45;104846;1327;22316;-82
2023/01/04 06:55:18;;;;;;;73.30;66.10;;;;;;;-1.57;97.75;98925.27;104918;1327;22174;-86
2023/01/04 06:57:46;;;;;;;64.30;57.70;;;;;;;-1.63;97.80;98922.44;104933;1327;22218;-83
2023/01/04 07:00:15;;;;;;;63.90;57.70;;;;;;;-1.69;97.97;98923.94;104876;1318;22263;-86
2023/01/04 07:02:43;;;;;;;59.20;53.20;;;;;;;-1.75;98.15;98923.30;104773;1327;22189;-83
2023/01/04 07:05:31;;;;;;;62.10;56.30;;;;;;;-1.75;98.18;98919.52;104928;1327;22255;-81
2023/01/04 07:08:00;;;;;;;61.00;55.40;;;;;;;-1.73;98.30;98914.33;104828;1327;22172;-82
2023/01/04 07:10:35;;;;;;;67.00;60.80;;;;;;;-1.73;98.31;98910.05;104808;1327;22810;-82
2023/01/04 07:13:03;;;;;;;65.20;59.00;;;;;;;-1.73;97.91;98912.83;104763;1327;22283;-82
2023/01/04 07:15:31;;;;;;;59.90;54.30;;;;;;;-1.72;97.97;98909.58;105402;1320;22088;-81
2023/01/04 07:18:09;;;;;;;59.30;53.50;;;;;;;-1.69;97.91;98911.30;104936;1327;22292;-82
2023/01/04 07:20:37;;;;;;;60.20;54.10;;;;;;;-1.69;97.68;98909.22;104781;1327;22213;-82
2023/01/04 07:23:07;;;;;;;59.00;53.60;;;;;;;-1.70;97.93;98913.89;105413;1298;22204;-84
2023/01/04 07:25:35;;;;;;;60.50;55.20;;;;;;;-1.66;98.34;98909.15;104898;1327;22206;-83
2023/01/04 07:28:03;;;;;;;61.50;56.00;;;;;;;-1.60;98.31;98904.68;104848;1322;22865;-82
2023/01/04 07:30:31;;;;;;;60.20;54.80;;;;;;;-1.55;98.46;98909.86;105021;1308;22892;-82
2023/01/04 07:32:59;;;;;;;62.00;56.10;;;;;;;-1.48;98.71;98902.63;104959;1327;22961;-82
2023/01/04 07:35:27;;;;;;;62.30;56.80;;;;;;;-1.34;98.61;98905.40;104837;1319;156313;-85
2023/01/04 07:37:55;;;;;;;57.30;51.90;;;;;;;-1.28;98.46;98906.58;105047;1320;22172;-83
2023/01/04 07:40:26;;;;;;;55.70;50.50;;;;;;;-1.22;98.55;98906.73;104944;1324;22210;-84
2023/01/04 07:42:56;;;;;;;56.30;51.10;;;;;;;-1.10;98.69;98907.16;105300;1320;22188;-82
2023/01/04 07:45:25;;;;;;;57.10;51.70;;;;;;;-0.95;99.09;98901.02;105273;1319;22110;-82
2023/01/04 07:47:53;;;;;;;57.40;52.20;;;;;;;-0.77;99.33;98905.05;105421;1312;22182;-83
2023/01/04 07:50:21;;;;;;;59.40;54.10;;;;;;;-0.61;99.40;98899.27;105235;1305;22792;-82
2023/01/04 07:52:49;;;;;;;57.00;51.60;;;;;;;-0.49;99.17;98889.34;104786;1326;22226;-84
2023/01/04 07:55:17;;;;;;;53.80;48.70;;;;;;;-0.35;99.27;98887.42;105392;1309;22817;-81
2023/01/04 07:57:45;;;;;;;51.40;46.50;;;;;;;-0.19;99.34;98881.23;104928;1326;22216;-81
2023/01/04 08:00:13;;;;;;;54.00;48.90;;;;;;;-0.02;99.35;98879.29;104864;1327;22837;-82
2023/01/04 08:02:41;;;;;;;50.90;46.20;;;;;;;0.14;99.33;98885.54;105392;1320;22185;-83
2023/01/04 08:05:09;;;;;;;51.10;46.60;;;;;;;0.23;99.22;98885.45;104834;1327;22985;-83
2023/01/04 08:07:37;;;;;;;61.80;55.90;;;;;;;0.24;99.50;98888.10;105261;1315;22157;-83
2023/01/04 08:10:06;;;;;;;57.90;52.70;;;;;;;0.29;99.50;98889.52;104913;1326;22324;-83
2023/01/04 08:12:34;;;;;;;50.50;46.00;;;;;;;0.38;99.61;98894.02;104829;1326;22222;-83
2023/01/04 08:15:02;;;;;;;60.70;55.20;;;;;;;0.46;99.59;98888.90;104950;1327;22207;-82
2023/01/04 08:17:30;;;;;;;59.70;54.30;;;;;;;0.57;99.63;98884.70;105259;1319;22183;-83
2023/01/04 08:20:00;;;;;;;52.20;47.30;;;;;;;0.74;99.84;98886.10;104935;1326;22355;-83
2023/01/04 08:22:28;;;;;;;55.10;50.00;;;;;;;0.90;99.86;98878.55;104955;1327;22834;-81
2023/01/04 08:24:56;;;;;;;60.60;55.20;;;;;;;1.07;99.97;98875.90;104934;1325;22766;-81
2023/01/04 08:27:24;;;;;;;45.90;41.90;;;;;;;1.20;99.93;98864.45;104874;1326;22222;-81
2023/01/04 08:29:52;;;;;;;53.00;48.50;;;;;;;1.32;99.82;98868.34;104921;1326;22288;-81
2023/01/04 08:32:20;;;;;;;55.10;50.20;;;;;;;1.44;99.99;98861.92;104739;1298;22308;-82
2023/01/04 08:34:48;;;;;;;49.40;44.80;;;;;;;1.56;99.99;98862.23;104894;1318;22304;-81
2023/01/04 08:37:16;;;;;;;45.10;40.90;;;;;;;1.70;99.80;98861.19;104981;1320;22940;-81
2023/01/04 08:39:44;;;;;;;43.60;39.50;;;;;;;1.85;99.96;98856.77;104885;1327;22943;-83
2023/01/04 08:42:16;;;;;;;45.60;41.30;;;;;;;1.99;99.88;98852.58;105336;1310;22913;-83
2023/01/04 08:44:59;;;;;;;43.80;39.60;;;;;;;2.13;99.77;98848.36;105406;1319;22069;-83
2023/01/04 08:47:29;;;;;;;44.80;40.70;;;;;;;2.23;99.87;98846.32;104945;1326;22206;-82
2023/01/04 08:49:58;;;;;;;42.80;38.40;;;;;;;2.31;99.80;98852.63;104905;1319;22288;-82
2023/01/04 08:52:34;;;;;;;43.00;38.90;;;;;;;2.38;99.63;98858.52;104840;1327;22228;-82
2023/01/04 08:55:02;;;;;;;40.50;36.70;;;;;;;2.47;99.79;98846.46;104939;1326;22193;-82
2023/01/04 08:57:39;;;;;;;42.60;38.60;;;;;;;2.57;99.68;98843.36;104923;1313;22237;-82
2023/01/04 09:00:08;;;;;;;43.70;39.70;;;;;;;2.63;99.72;98842.45;104907;1326;22200;-81
2023/01/04 09:02:36;;;;;;;44.90;40.80;;;;;;;2.69;99.53;98839.91;105170;1319;22263;-81
2023/01/04 09:05:05;;;;;;;45.60;41.30;;;;;;;2.78;99.60;98839.17;105386;1320;22183;-81
2023/01/04 09:07:33;;;;;;;45.60;41.10;;;;;;;2.84;99.56;98836.86;104865;1327;22187;-82
2023/01/04 09:10:01;;;;;;;46.00;41.40;;;;;;;2.92;99.37;98838.06;105271;1298;23264;-82
2023/01/04 09:12:29;;;;;;;45.20;41.00;;;;;;;3.01;99.44;98837.34;105431;1313;23031;-82
2023/01/04 09:14:57;;;;;;;44.50;40.20;;;;;;;3.09;99.17;98832.22;104959;1326;22206;-82
2023/01/04 09:17:25;;;;;;;45.70;41.60;;;;;;;3.16;99.27;98825.61;105375;1318;22343;-81
2023/01/04 09:19:53;;;;;;;44.30;40.40;;;;;;;3.24;99.35;98824.84;104942;1326;22209;-81
2023/01/04 09:22:21;;;;;;;45.30;41.30;;;;;;;3.30;99.42;98824.02;104970;1326;22209;-82
2023/01/04 09:24:49;;;;;;;43.90;39.50;;;;;;;3.36;99.04;98819.64;104983;1326;22211;-82
2023/01/04 09:27:17;;;;;;;41.60;37.60;;;;;;;3.45;98.92;98816.23;104899;1303;22165;-82
2023/01/04 09:29:45;;;;;;;43.40;39.40;;;;;;;3.56;99.23;98812.08;105021;1320;22197;-82
2023/01/04 09:32:13;;;;;;;41.20;37.30;;;;;;;3.69;99.21;98811.15;105340;1319;22912;-83
2023/01/04 09:34:44;;;;;;;43.60;39.50;;;;;;;3.80;99.14;98807.56;104759;1327;22260;-82
2023/01/04 09:37:12;;;;;;;44.40;40.20;;;;;;;3.89;99.02;98798.95;104880;1327;22125;-83
2023/01/04 09:39:40;;;;;;;45.40;41.00;;;;;;;3.96;98.83;98795.65;105247;1319;22174;-83
2023/01/04 09:42:33;;;;;;;41.70;37.80;;;;;;;4.04;98.92;98792.31;105299;1319;22250;-82
2023/01/04 09:45:30;;;;;;;32.70;29.40;;;;;;;4.12;98.58;98786.60;104755;1327;22241;-83
2023/01/04 09:48:06;;;;;;;29.80;26.80;;;;;;;4.22;98.39;98779.58;105292;1320;22181;-82
2023/01/04 09:51:00;;;;;;;28.40;25.60;;;;;;;4.34;97.42;98772.23;104767;1322;22203;-83
2023/01/04 09:53:45;;;;;;;52.80;47.60;;;;;;;4.44;97.30;98770.02;104921;1322;22304;-82
2023/01/04 09:56:30;;;;;;;61.20;55.50;;;;;;;4.52;97.44;98767.19;105290;1318;22861;-82
2023/01/04 09:59:04;;;;;;;54.20;49.10;;;;;;;4.59;96.21;98758.18;105207;1320;22175;-82
2023/01/04 10:01:43;;;;;;;35.00;31.60;;;;;;;4.63;95.07;98752.54;104889;1327;22073;-83
2023/01/04 10:04:27;;;;;;;41.30;37.50;;;;;;;4.66;95.16;98742.58;104832;1327;22590;-83
2023/01/04 10:06:57;;;;;;;38.10;34.40;;;;;;;4.72;93.68;98727.98;104987;1327;22930;-82
2023/01/04 10:09:32;;;;;;;37.10;33.40;;;;;;;4.80;92.06;98714.83;105296;1320;22272;-82
2023/01/04 10:12:28;;;;;;;39.30;35.30;;;;;;;4.85;91.85;98713.10;105255;1305;22879;-82
2023/01/04 10:15:14;;;;;;;45.70;40.80;;;;;;;4.92;90.27;98717.29;105312;1320;22267;-83
2023/01/04 10:17:51;;;;;;;45.80;41.30;;;;;;;4.95;89.09;98708.04;104901;1325;22212;-81
2023/01/04 10:20:45;;;;;;;49.80;45.00;;;;;;;4.95;89.34;98701.48;104934;1326;22218;-82
2023/01/04 10:23:41;;;;;;;51.60;46.60;;;;;;;5.00;89.61;98696.85;104945;1319;22219;-82
2023/01/04 10:26:14;;;;;;;46.90;42.20;;;;;;;5.07;89.91;98685.41;105382;1305;22268;-81
2023/01/04 10:28:55;;;;;;;43.60;39.10;;;;;;;5.16;89.52;98680.53;105058;1320;22237;-80
2023/01/04 10:32:00;;;;;;;40.70;36.70;;;;;;;5.29;88.97;98689.33;104878;1327;22192;-82
2023/01/04 10:34:38;;;;;;;44.90;35.20;;;;;;;5.37;86.55;98688.59;105264;1320;22104;-82
2023/01/04 10:37:23;;;;;;;38.60;34.60;;;;;;;5.41;86.85;98687.10;104857;1327;22359;-81
2023/01/04 10:39:54;;;;;;;38.70;34.80;;;;;;;5.47;86.27;98678.79;104784;1327;22275;-81
2023/01/04 10:42:31;;;;;;;31.50;28.50;;;;;;;5.55;87.51;98672.70;104803;1327;22750;-81
2023/01/04 10:45:02;;;;;;;33.30;30.00;;;;;;;5.62;86.17;98664.77;105006;1327;22205;-80
2023/01/04 10:47:54;;;;;;;32.20;29.30;;;;;;;5.65;86.01;98660.59;105265;1321;22073;-81
2023/01/04 10:50:33;;;;;;;33.60;30.30;;;;;;;5.71;86.06;98658.79;105111;1327;22234;-81
2023/01/04 10:53:24;;;;;;;28.90;25.80;;;;;;;5.78;86.68;98653.37;104941;1317;22398;-82
2023/01/04 10:56:17;;;;;;;28.50;25.70;;;;;;;5.90;85.32;98653.84;104878;1327;22105;-82
2023/01/04 10:59:08;;;;;;;41.60;37.50;;;;;;;5.96;84.01;98641.36;104912;1327;22336;-81
2023/01/04 11:01:42;;;;;;;34.40;30.90;;;;;;;5.99;84.51;98635.29;104942;1317;22805;-82
2023/01/04 11:04:17;;;;;;;;;;;;;;;6.05;84.43;98628.30;105341;1320;22281;-82
2023/01/04 11:06:48;;;;;;;36.70;33.10;;;;;;;6.12;84.71;98616.92;104859;1325;23420;-82
2023/01/04 11:09:32;;;;;;;33.40;30.10;;;;;;;6.18;82.46;98615.85;104870;1327;22193;-82
2023/01/04 11:12:01;;;;;;;35.70;32.10;;;;;;;6.24;82.74;98609.71;104835;1320;22184;-82
2023/01/04 11:14:29;;;;;;;36.60;32.90;;;;;;;6.27;81.47;98600.21;104841;1327;22212;-82
2023/01/04 11:17:07;;;;;;;33.00;29.70;;;;;;;6.30;81.23;98592.96;104842;1327;22253;-82
2023/01/04 11:19:35;;;;;;;37.70;34.10;;;;;;;6.33;81.25;98588.08;104907;1327;22913;-82
2023/01/04 11:22:25;;;;;;;35.20;31.50;;;;;;;6.36;80.92;98576.84;104844;1327;22204;-82
2023/01/04 11:25:00;;;;;;;37.40;33.80;;;;;;;6.42;81.28;98576.69;104882;1311;22451;-82
2023/01/04 11:27:56;;;;;;;39.10;35.30;;;;;;;6.71;80.46;98570.49;105387;1312;23058;-83
2023/01/04 11:30:29;;;;;;;40.20;36.20;;;;;;;6.97;79.63;98567.24;104909;1327;22238;-83
2023/01/04 11:33:09;;;;;;;40.40;35.30;;;;;;;6.97;78.26;98567.98;105412;1319;22164;-82
2023/01/04 11:35:40;;;;;;;41.60;37.50;;;;;;;6.92;78.48;98563.20;104937;1327;22898;-83
2023/01/04 11:38:11;;;;;;;42.60;38.40;;;;;;;6.81;79.01;98557.91;104766;1327;22228;-82
2023/01/04 11:40:40;;;;;;;41.90;37.00;;;;;;;6.77;77.55;98562.11;104869;1327;23391;-83
2023/01/04 11:43:19;;;;;;;30.40;27.40;;;;;;;6.72;77.97;98552.77;104925;1327;22085;-82
2023/01/04 11:45:59;;;;;;;32.80;29.60;;;;;;;6.76;77.22;98546.09;105233;1320;22181;-82
2023/01/04 11:48:46;;;;;;;36.80;30.40;;;;;;;6.81;76.25;98542.77;105400;1319;22187;-82
2023/01/04 11:51:18;;;;;;;34.70;31.00;;;;;;;7.04;76.49;98534.48;104659;1327;22222;-82
2023/01/04 11:53:55;;;;;;;28.30;25.60;;;;;;;7.43;73.73;98523.18;105418;1301;22205;-83
2023/01/04 11:56:26;;;;;;;35.10;31.40;;;;;;;7.53;73.69;98514.64;104924;1311;22246;-83
2023/01/04 11:59:03;;;;;;;32.90;29.60;;;;;;;7.50;73.03;98509.96;105429;1319;22200;-82
2023/01/04 12:01:35;;;;;;;43.40;37.60;;;;;;;7.39;72.80;98501.14;104908;1327;22838;-82
2023/01/04 12:04:10;;;;;;;38.10;34.10;;;;;;;7.50;74.68;98494.63;105001;1320;22179;-82
2023/01/04 12:06:48;;;;;;;35.60;31.60;;;;;;;7.87;75.95;98480.75;105416;1319;22349;-82
2023/01/04 12:09:18;;;;;;;42.10;37.50;;;;;;;8.31;74.59;98473.43;104929;1327;23185;-81
2023/01/04 12:11:51;;;;;;;56.50;51.00;;;;;;;8.60;74.56;98463.21;105108;1314;22236;-81
2023/01/04 12:14:31;;;;;;;54.90;49.60;;;;;;;8.94;74.14;98461.45;104835;1328;22406;-81
2023/01/04 12:17:14;;;;;;;58.50;52.90;;;;;;;9.28;75.47;98458.95;104843;1326;22189;-80
2023/01/04 12:19:44;;;;;;;33.30;30.00;;;;;;;9.53;74.92;98453.49;105247;1312;22184;-81
2023/01/04 12:22:34;;;;;;;33.80;30.40;;;;;;;9.71;73.33;98455.85;104908;1327;22214;-81
2023/01/04 12:25:26;;;;;;;34.10;30.60;;;;;;;9.75;72.13;98454.71;105297;1312;22139;-81
2023/01/04 12:27:54;;;;;;;38.60;34.80;;;;;;;9.53;72.22;98451.77;105400;1319;22202;-81